Tuesday, February 20, 2018, 10:38 AM EST
Back to Local

KROC, Greater Rochester International

Location: Rochester, NY, United States Lat: 43.117
Local Time: 10:38 AM EST (15:38 GMT) Lon: -77.683
Time Zone: US/Eastern Elev: 557 ft

Show me the last for .
Show Decoded

2018-02-20 10:02 METAR KROC 201502Z 23007KT 4SM -RA BR OVC028 15/13 A3008 RMK AO2 P0001 T01500128
                 =
2018-02-20 09:54 METAR KROC 201454Z 24008KT 10SM -RA BKN030 OVC042 15/13 A3008 RMK AO2 RAB08
                 SLP191 P0002 60002 T01500128 53008 =
2018-02-20 08:54 METAR KROC 201354Z 23012KT 10SM SCT035 BKN120 OVC180 16/12 A3007 RMK AO2 SLP186
                 T01610122 =
2018-02-20 07:54 METAR KROC 201254Z 22011KT 10SM BKN095 BKN110 OVC140 16/12 A3007 RMK AO2 SLP186
                 BINOVC T01560117 =
2018-02-20 06:54 METAR KROC 201154Z 22011G18KT 10SM FEW041 SCT070 OVC095 14/12 A3006 RMK AO2
                 RAE14 SLP183 BINOVC P0001 60008 70051 T01440117 10144 20122 50003 =
2018-02-20 05:54 METAR KROC 201054Z 22009KT 10SM -RA OVC100 14/12 A3007 RMK AO2 RAB13 SLP186
                 P0001 T01390117 =
2018-02-20 04:54 METAR KROC 200954Z 22009KT 10SM FEW075 OVC095 14/12 A3005 RMK AO2 SLP182 BINOVC
                 P0001 T01390117 =
2018-02-20 03:54 METAR KROC 200854Z 22008KT 10SM BKN049 OVC065 13/12 A3005 RMK AO2 RAE46 SLP181
                 P0002 60005 T01330117 58004 =
2018-02-20 02:54 METAR KROC 200754Z 22007KT 10SM -RA FEW027 BKN036 OVC043 13/11 A3006 RMK AO2
                 RAB47 SLP184 P0000 T01280111 =
2018-02-20 01:54 METAR KROC 200654Z 22008KT 10SM OVC028 13/11 A3006 RMK AO2 RAE20 SLP185 P0003
                 T01280111 =
2018-02-20 00:54 METAR KROC 200554Z 24008KT 7SM -RA FEW028 BKN034 12/11 A3006 RMK AO2 RAB0458
                 SLP185 P0004 60023 T01220111 10128 20094 53005 =
2018-02-19 23:54 METAR KROC 200454Z 22012KT 10SM FEW035 SCT042 BKN060 13/11 A3006 RMK AO2 RAE03
                 SLP183 P0001 T01280111 401281017 =
2018-02-19 22:54 METAR KROC 200354Z 22008KT 10SM -RA FEW050 SCT065 OVC085 12/11 A3005 RMK AO2
                 SLP179 P0013 T01220111 =
2018-02-19 21:54 METAR KROC 200254Z 21013KT 8SM RA FEW026 BKN044 OVC055 12/11 A3005 RMK AO2
                 RAE0158B29 SLP181 P0002 60005 T01220106 56001 =
2018-02-19 21:44 METAR KROC 200244Z 22014G19KT 10SM -RA SCT025 BKN033 OVC055 12/11 A3005 RMK AO2
                 RAE0158B29 P0001 T01220106 =
2018-02-19 21:03 METAR KROC 200203Z 22013KT 10SM BKN026 OVC034 12/10 A3005 RMK AO2 RAE0158 P0000
                 T01170100 =
2018-02-19 20:54 METAR KROC 200154Z 22011KT 10SM -RA OVC032 11/10 A3005 RMK AO2 RAB23 SLP181
                 P0002 T01110100 =
2018-02-19 20:02 METAR KROC 200102Z 22009KT 10SM SCT027 OVC034 11/09 A3004 RMK AO2 T01060094 =
2018-02-19 19:54 METAR KROC 200054Z 21010G18KT 10SM BKN027 OVC032 11/09 A3004 RMK AO2 RAE24
                 SLP179 P0001 T01060089 =
2018-02-19 18:59 METAR KROC 192359Z 19009KT 9SM -RA BKN025 BKN034 OVC042 09/08 A3005 =
2018-02-19 18:54 METAR KROC 192354Z 19010KT 8SM -RA SCT027 BKN034 OVC070 09/08 A3005 RMK AO2
                 PRESFR SLP183 P0007 60020 T00940083 10094 20089 58002 =
2018-02-19 18:45 METAR KROC 192345Z 18007KT 6SM RA BR SCT023 BKN030 OVC070 09/08 A3006 RMK AO2
                 P0006 T00890083 =
2018-02-19 17:54 METAR KROC 192254Z 21006KT 7SM -RA SCT021 BKN026 OVC039 09/08 A3007 RMK AO2
                 SLP189 P0010 T00890083 =
2018-02-19 16:54 METAR KROC 192154Z 21009KT 9SM -RA OVC022 09/08 A3007 RMK AO2 SLP191 P0003
                 T00940078 =
2018-02-19 15:54 METAR KROC 192054Z 21011G18KT 10SM -RA BKN026 OVC035 09/07 A3006 RMK AO2
                 RAE29B48 SLP185 P0000 60000 T00940067 58009 =
2018-02-19 14:54 METAR KROC 191954Z 20011KT 10SM -RA OVC026 09/06 A3007 RMK AO2 RAB02E29B48
                 SLP189 P0000 T00940056 =
2018-02-19 13:54 METAR KROC 191854Z 20007KT 10SM OVC024 09/04 A3009 RMK AO2 SLP197 T00890039 =
2018-02-19 12:54 METAR KROC 191754Z 18012KT 10SM BKN025 BKN060 OVC095 09/04 A3008 RMK AO2
                 RAB14E25 SLP195 P0000 60000 T00890039 10100 20044 57019 =
2018-02-19 12:44 METAR KROC 191744Z 19010KT 10SM BKN025 BKN060 OVC095 09/03 A3010 RMK AO2
                 RAB14E25 P0000 T00890033 =
2018-02-19 11:54 METAR KROC 191654Z 21013G21KT 10SM SCT042 BKN120 OVC180 10/03 A3011 RMK AO2
                 RAB34E43 SLP202 P0000 T01000033 =
2018-02-19 10:54 METAR KROC 191554Z 19010KT 10SM FEW090 BKN110 BKN180 OVC240 08/01 A3012 RMK AO2
                 SLP207 T00780011 =

Support USWX by starting your Amazon purchase here.